Time;durP1;ratioP1;P1;durP2;ratioP2;P2;SDS_P1;SDS_P2;PMS_P1;PMS_P2;Temp;Humidity;BMP_temperature;BMP_pressure;BME280_temperature;BME280_humidity;BME280_pressure;Samples;Min_cycle;Max_cycle;Signal;HPM_P1;HPM_P2
2022/04/18 00:01:41;;;;;;;2.55;2.35;;;;;;;7.10;65.78;95678.41;5097056;28;20056;-59
2022/04/18 00:04:07;;;;;;;2.55;2.35;;;;;;;7.15;65.02;95678.84;5096072;28;20138;-58
2022/04/18 00:06:35;;;;;;;3.53;2.80;;;;;;;7.13;65.00;95678.97;5095949;28;20027;-59
2022/04/18 00:09:01;;;;;;;3.35;2.55;;;;;;;7.10;66.15;95679.22;5094702;28;20066;-59
2022/04/18 00:11:27;;;;;;;2.63;2.50;;;;;;;7.13;64.63;95672.91;5100025;28;20075;-58
2022/04/18 00:13:52;;;;;;;3.70;3.40;;;;;;;7.00;66.64;95681.72;5095144;28;20039;-59
2022/04/18 00:16:17;;;;;;;2.80;2.60;;;;;;;6.86;67.65;95685.41;5096236;28;20028;-58
2022/04/18 00:18:43;;;;;;;2.83;2.63;;;;;;;6.80;68.06;95677.19;5093900;28;20065;-59
2022/04/18 00:21:08;;;;;;;2.53;2.42;;;;;;;6.77;67.00;95675.66;5097167;28;20040;-58
2022/04/18 00:23:33;;;;;;;2.47;2.28;;;;;;;6.97;65.38;95675.91;5095890;28;20413;-58
2022/04/18 00:25:59;;;;;;;3.58;2.25;;;;;;;7.11;64.21;95672.19;5094969;28;20015;-59
2022/04/18 00:28:24;;;;;;;2.72;2.53;;;;;;;6.93;65.65;95667.44;5093576;28;20012;-59
2022/04/18 00:30:50;;;;;;;2.60;2.40;;;;;;;6.91;65.09;95664.13;5096519;28;20034;-58
2022/04/18 00:33:15;;;;;;;4.28;2.45;;;;;;;6.82;66.08;95660.44;5095089;28;20020;-58
2022/04/18 00:35:40;;;;;;;3.25;2.20;;;;;;;6.73;66.76;95664.59;5093874;28;20024;-59
2022/04/18 00:38:06;;;;;;;4.80;2.65;;;;;;;6.63;67.58;95658.44;5096513;28;20020;-59
2022/04/18 00:40:31;;;;;;;2.70;2.50;;;;;;;6.56;67.25;95663.28;5095080;28;20119;-58
2022/04/18 00:43:06;;;;;;;2.30;2.20;;;;;;;6.49;67.70;95669.94;5092782;28;20052;-59
2022/04/18 00:45:32;;;;;;;2.38;2.28;;;;;;;6.44;68.95;95657.22;5095538;28;20114;-59
2022/04/18 00:47:58;;;;;;;3.15;2.95;;;;;;;6.43;68.04;95666.03;5096555;28;20118;-58
2022/04/18 00:50:24;;;;;;;2.63;2.42;;;;;;;6.40;68.46;95661.00;5095127;28;20502;-59
2022/04/18 00:52:51;;;;;;;2.58;2.40;;;;;;;6.36;70.37;95658.75;5094707;28;20440;-58
2022/04/18 00:55:19;;;;;;;3.05;2.78;;;;;;;6.27;69.47;95666.31;5094979;28;20023;-59
2022/04/18 00:57:44;;;;;;;2.78;2.58;;;;;;;6.21;68.82;95656.34;5093979;28;20031;-59
2022/04/18 01:00:10;;;;;;;2.50;2.30;;;;;;;6.11;69.55;95655.38;5092726;28;20122;-58
2022/04/18 01:02:36;;;;;;;3.47;2.40;;;;;;;6.14;68.77;95649.91;5096479;28;20020;-58
2022/04/18 01:05:01;;;;;;;2.60;2.50;;;;;;;6.10;68.24;95658.94;5093458;28;20407;-59
2022/04/18 01:07:27;;;;;;;6.22;2.38;;;;;;;6.07;68.72;95654.75;5094516;28;20076;-58
2022/04/18 01:09:52;;;;;;;2.38;2.28;;;;;;;6.04;69.34;95646.31;5098213;28;20021;-59
2022/04/18 01:12:17;;;;;;;2.90;2.33;;;;;;;6.01;69.57;95652.63;5097498;28;20551;-58
2022/04/18 01:14:49;;;;;;;2.63;2.40;;;;;;;5.97;70.64;95651.16;5092712;28;20028;-59
2022/04/18 01:17:15;;;;;;;2.42;2.33;;;;;;;5.99;69.35;95651.88;5094596;28;20043;-58
2022/04/18 01:19:42;;;;;;;2.85;2.30;;;;;;;5.97;70.31;95651.97;5093544;28;20054;-58
2022/04/18 01:22:11;;;;;;;2.97;2.63;;;;;;;5.90;69.67;95653.38;5093732;28;20128;-59
2022/04/18 01:30:07;;;;;;;2.63;2.42;;;;;;;6.17;67.32;95644.44;5089433;28;20406;-58
2022/04/18 01:32:32;;;;;;;2.60;2.42;;;;;;;5.98;69.17;95655.44;5093197;28;20027;-59
2022/04/18 01:34:57;;;;;;;2.50;2.30;;;;;;;5.88;69.08;95650.88;5096046;28;20088;-59
2022/04/18 01:37:23;;;;;;;2.60;2.40;;;;;;;5.82;69.98;95647.88;5097076;28;20399;-58
2022/04/18 01:39:49;;;;;;;3.80;3.00;;;;;;;5.79;69.75;95643.72;5092751;28;20081;-58
2022/04/18 01:42:15;;;;;;;3.28;3.08;;;;;;;5.75;71.37;95644.91;5087926;28;20126;-59
2022/04/18 01:44:40;;;;;;;4.78;2.53;;;;;;;5.73;71.74;95652.00;5093595;28;20047;-59
2022/04/18 01:47:05;;;;;;;3.08;2.88;;;;;;;5.68;71.83;95648.91;5095502;28;20031;-59
2022/04/18 01:49:31;;;;;;;5.85;2.42;;;;;;;5.67;70.73;95655.91;5093166;28;20108;-59
2022/04/18 01:51:56;;;;;;;2.58;2.38;;;;;;;5.66;70.71;95656.88;5092127;28;20509;-59
2022/04/18 01:54:22;;;;;;;5.68;2.50;;;;;;;5.63;71.45;95657.06;5094604;28;20028;-59
2022/04/18 01:56:48;;;;;;;3.25;3.00;;;;;;;5.58;71.50;95654.81;5092596;28;20149;-58
2022/04/18 01:59:13;;;;;;;3.00;2.80;;;;;;;5.55;72.60;95657.66;5096961;28;20024;-58
2022/04/18 02:01:39;;;;;;;2.72;2.53;;;;;;;5.56;72.44;95661.06;5093718;28;20024;-59
2022/04/18 02:04:04;;;;;;;6.30;4.43;;;;;;;5.50;72.07;95657.13;5095651;28;20043;-59
2022/04/18 02:06:29;;;;;;;2.65;2.40;;;;;;;5.45;72.02;95664.47;5093470;28;20031;-58
2022/04/18 02:08:55;;;;;;;2.53;2.38;;;;;;;5.36;72.40;95655.53;5095217;28;20161;-59
2022/04/18 02:11:20;;;;;;;2.70;2.50;;;;;;;5.30;71.79;95654.22;5096989;28;20039;-59
2022/04/18 02:13:46;;;;;;;2.90;2.70;;;;;;;5.27;72.39;95661.41;5093420;28;20046;-58
2022/04/18 02:16:11;;;;;;;2.28;2.13;;;;;;;5.27;72.03;95653.59;5095218;28;20055;-58
2022/04/18 02:18:37;;;;;;;2.90;2.70;;;;;;;5.27;72.01;95656.19;5092591;28;20531;-59
2022/04/18 02:21:03;;;;;;;2.70;2.50;;;;;;;5.32;73.00;95661.09;5096746;28;20135;-59
2022/04/18 02:23:28;;;;;;;2.53;2.42;;;;;;;5.30;73.96;95659.44;5096498;28;20536;-59
2022/04/18 02:25:54;;;;;;;2.53;2.42;;;;;;;5.26;73.77;95667.59;5092704;28;20054;-59
2022/04/18 02:28:20;;;;;;;2.97;2.78;;;;;;;5.20;74.07;95668.03;5093442;28;20107;-59
2022/04/18 02:30:45;;;;;;;3.00;2.75;;;;;;;5.13;74.13;95665.84;5093268;28;20119;-59
2022/04/18 02:33:11;;;;;;;2.88;2.67;;;;;;;5.10;73.86;95662.63;5095222;28;20484;-59
2022/04/18 02:35:36;;;;;;;2.38;2.28;;;;;;;5.12;73.26;95664.16;5092362;28;20115;-59
2022/04/18 02:38:02;;;;;;;2.75;2.55;;;;;;;5.16;73.40;95670.81;5095186;28;20036;-58
2022/04/18 02:40:27;;;;;;;6.95;2.97;;;;;;;5.14;74.17;95670.09;5093766;28;20092;-58
2022/04/18 02:42:53;;;;;;;2.90;2.70;;;;;;;5.05;75.27;95668.16;5094508;28;20120;-59
2022/04/18 02:45:19;;;;;;;2.78;2.67;;;;;;;5.04;76.17;95674.31;5097116;28;20036;-58
2022/04/18 02:47:44;;;;;;;2.95;2.75;;;;;;;5.00;75.46;95672.88;5098140;28;20102;-59
2022/04/18 02:50:10;;;;;;;2.42;2.33;;;;;;;4.98;75.11;95666.94;5096193;28;20032;-59
2022/04/18 02:52:36;;;;;;;2.90;2.70;;;;;;;4.93;75.32;95669.00;5095655;28;20032;-59
2022/04/18 02:55:02;;;;;;;2.65;2.55;;;;;;;4.87;75.31;95667.69;5097693;28;20044;-59
2022/04/18 02:57:27;;;;;;;2.63;2.53;;;;;;;4.82;74.66;95662.78;5098624;28;20027;-59
2022/04/18 02:59:53;;;;;;;2.83;2.63;;;;;;;4.79;74.24;95657.78;5095373;28;20024;-60
2022/04/18 03:02:18;;;;;;;3.17;2.80;;;;;;;4.82;74.76;95662.78;5097451;28;20410;-59
2022/04/18 03:04:44;;;;;;;2.90;2.63;;;;;;;4.82;74.43;95661.94;5097180;28;20028;-58
2022/04/18 03:07:09;;;;;;;7.72;2.47;;;;;;;4.86;74.36;95664.22;5099590;28;20550;-59
2022/04/18 03:09:35;;;;;;;3.25;3.00;;;;;;;4.88;74.14;95656.31;5095929;28;20115;-59
2022/04/18 03:12:02;;;;;;;3.28;2.90;;;;;;;4.88;75.53;95662.34;5097802;28;20511;-59
2022/04/18 03:14:29;;;;;;;4.90;3.42;;;;;;;4.80;75.59;95663.81;5096017;28;20163;-59
2022/04/18 03:16:55;;;;;;;4.05;3.75;;;;;;;4.76;76.50;95659.75;5097977;28;20032;-59
2022/04/18 03:19:20;;;;;;;4.45;4.05;;;;;;;4.77;76.56;95658.81;5086631;28;20036;-59
2022/04/18 03:21:46;;;;;;;4.18;3.80;;;;;;;4.75;75.87;95658.91;5096262;28;20054;-59
2022/04/18 03:24:11;;;;;;;3.20;2.97;;;;;;;4.80;75.66;95662.06;5096935;28;20119;-59
2022/04/18 03:26:37;;;;;;;5.25;4.15;;;;;;;4.78;75.85;95655.28;5096602;28;20036;-59
2022/04/18 03:29:02;;;;;;;5.38;4.28;;;;;;;4.73;77.23;95666.00;5094994;28;20454;-59
2022/04/18 03:31:28;;;;;;;4.57;4.18;;;;;;;4.65;77.27;95653.53;5098416;28;20478;-58
2022/04/18 03:33:53;;;;;;;3.85;3.55;;;;;;;4.57;77.73;95664.50;5095838;28;20036;-58
2022/04/18 03:41:47;;;;;;;3.17;2.60;;;;;;;4.58;76.51;95660.09;5098092;28;20039;-58
2022/04/18 03:44:12;;;;;;;7.35;6.63;;;;;;;4.52;77.69;95658.72;5096486;28;20048;-59
2022/04/18 03:46:37;;;;;;;3.22;3.00;;;;;;;4.43;78.01;95662.84;5098154;28;20032;-59
2022/04/18 03:49:03;;;;;;;3.25;3.05;;;;;;;4.37;78.12;95655.41;5095307;28;20028;-58
2022/04/18 03:51:29;;;;;;;4.38;3.47;;;;;;;4.40;78.44;95662.19;5094423;28;20032;-58
2022/04/18 03:53:54;;;;;;;3.80;3.50;;;;;;;4.36;78.51;95653.75;5096457;28;20468;-58
2022/04/18 03:56:20;;;;;;;3.55;3.33;;;;;;;4.36;77.73;95652.91;5096153;28;20117;-58
2022/04/18 03:58:45;;;;;;;3.30;3.00;;;;;;;4.30;78.95;95649.78;5094539;28;20165;-59
2022/04/18 04:01:10;;;;;;;3.20;3.00;;;;;;;4.26;79.08;95650.91;5094855;28;20032;-58
2022/04/18 04:03:36;;;;;;;2.65;2.55;;;;;;;4.26;77.94;95650.91;5096151;27;20024;-59
2022/04/18 04:06:01;;;;;;;3.72;2.55;;;;;;;4.24;79.43;95652.81;5094147;28;20049;-58
2022/04/18 04:08:28;;;;;;;3.05;2.85;;;;;;;4.19;79.09;95654.03;5098993;28;20487;-58
2022/04/18 04:10:54;;;;;;;3.13;2.80;;;;;;;4.14;79.66;95657.78;5096383;28;20410;-59
2022/04/18 04:13:19;;;;;;;2.85;2.65;;;;;;;4.11;78.84;95657.19;5096432;28;20038;-58
2022/04/18 04:15:45;;;;;;;2.45;2.35;;;;;;;4.08;78.74;95652.16;5097631;28;20039;-58
2022/04/18 04:18:10;;;;;;;2.83;2.63;;;;;;;4.11;79.26;95646.78;5097926;28;20059;-59
2022/04/18 04:20:36;;;;;;;3.03;2.83;;;;;;;4.12;78.56;95653.66;5101329;28;20058;-59
2022/04/18 04:23:01;;;;;;;3.08;2.83;;;;;;;4.16;78.07;95655.09;5097786;28;20043;-59
2022/04/18 04:25:27;;;;;;;3.38;2.80;;;;;;;4.08;79.52;95654.75;5096050;28;20038;-59
2022/04/18 04:27:52;;;;;;;2.95;2.78;;;;;;;4.04;80.58;95663.72;5095579;28;20028;-59
2022/04/18 04:30:17;;;;;;;3.15;2.95;;;;;;;4.01;80.40;95664.78;5095839;28;20051;-58
2022/04/18 04:32:43;;;;;;;3.25;3.05;;;;;;;4.06;79.67;95664.47;5093956;28;20119;-59
2022/04/18 04:35:08;;;;;;;3.30;3.08;;;;;;;4.05;80.71;95668.84;5096050;28;20039;-59
2022/04/18 04:37:34;;;;;;;3.40;3.20;;;;;;;4.04;82.02;95667.19;5098277;28;20532;-58
2022/04/18 04:39:59;;;;;;;3.78;3.20;;;;;;;4.02;80.89;95663.84;5093477;28;20024;-59
2022/04/18 04:42:24;;;;;;;3.10;2.90;;;;;;;4.01;80.71;95668.22;5098967;28;20471;-59
2022/04/18 04:44:50;;;;;;;3.05;2.90;;;;;;;3.99;81.07;95671.88;5098180;28;20032;-59
2022/04/18 04:47:15;;;;;;;3.20;2.72;;;;;;;3.97;80.49;95671.97;5097918;28;20616;-59
2022/04/18 04:49:43;;;;;;;2.72;2.53;;;;;;;3.96;79.72;95670.28;5094632;28;20498;-59
2022/04/18 04:52:08;;;;;;;2.75;2.60;;;;;;;3.92;79.71;95676.66;5093442;28;20406;-59
2022/04/18 04:54:36;;;;;;;2.78;2.63;;;;;;;3.90;79.29;95680.28;5096329;28;20040;-59
2022/04/18 04:57:02;;;;;;;2.67;2.53;;;;;;;3.89;79.61;95676.00;5093247;28;20341;-59
2022/04/18 04:59:27;;;;;;;2.80;2.60;;;;;;;3.82;80.78;95672.97;5094350;28;20019;-58
2022/04/18 05:01:52;;;;;;;2.92;2.72;;;;;;;3.77;80.27;95680.25;5097156;28;20436;-58
2022/04/18 05:04:18;;;;;;;3.10;2.90;;;;;;;3.77;80.28;95685.47;5098323;28;20042;-59
2022/04/18 05:06:44;;;;;;;3.97;2.50;;;;;;;3.88;79.83;95680.41;5093509;28;20034;-59
2022/04/18 05:09:09;;;;;;;3.28;2.97;;;;;;;3.89;80.66;95689.88;5096168;28;20032;-59
2022/04/18 05:11:34;;;;;;;3.70;2.67;;;;;;;3.90;80.05;95688.94;5096170;28;20027;-58
2022/04/18 05:14:00;;;;;;;3.08;2.83;;;;;;;3.91;80.72;95682.78;5092937;28;20071;-59
2022/04/18 05:16:25;;;;;;;2.72;2.53;;;;;;;3.90;80.91;95681.13;5096936;28;20415;-59
2022/04/18 05:18:51;;;;;;;3.65;2.70;;;;;;;3.90;80.66;95683.72;5093566;28;20083;-59
2022/04/18 05:21:16;;;;;;;2.85;2.65;;;;;;;3.91;81.82;95680.19;5094997;28;20024;-59
2022/04/18 05:23:41;;;;;;;2.92;2.60;;;;;;;3.96;81.46;95687.69;5095750;28;20032;-58
2022/04/18 05:26:07;;;;;;;2.63;2.53;;;;;;;4.01;81.87;95693.44;5095605;28;20031;-59
2022/04/18 05:28:32;;;;;;;2.58;2.42;;;;;;;4.04;82.37;95692.38;5093084;28;20084;-59
2022/04/18 05:30:58;;;;;;;3.00;2.80;;;;;;;3.97;82.48;95687.59;5094083;28;20031;-59
2022/04/18 05:33:23;;;;;;;3.13;2.92;;;;;;;3.92;82.22;95684.47;5095272;28;20143;-58
2022/04/18 05:35:49;;;;;;;3.15;2.92;;;;;;;3.96;82.34;95692.88;5091262;28;20081;-58
2022/04/18 05:38:15;;;;;;;3.97;3.20;;;;;;;4.01;81.85;95685.63;5096225;28;20036;-59
2022/04/18 05:40:41;;;;;;;3.38;3.13;;;;;;;4.05;81.11;95678.41;5094572;28;20028;-58
2022/04/18 05:43:08;;;;;;;3.38;3.17;;;;;;;4.08;80.68;95691.25;5094416;28;20094;-59
2022/04/18 05:45:34;;;;;;;3.42;2.97;;;;;;;4.11;81.77;95688.47;5092561;28;20568;-59
2022/04/18 05:47:59;;;;;;;3.40;3.10;;;;;;;4.10;80.87;95698.03;5093807;28;20032;-59
2022/04/18 05:50:25;;;;;;;6.25;5.07;;;;;;;4.14;80.75;95699.50;5097402;28;20042;-59
2022/04/18 05:52:50;;;;;;;4.05;3.65;;;;;;;4.21;81.39;95699.94;5093058;28;20024;-59
2022/04/18 05:55:15;;;;;;;3.88;3.58;;;;;;;4.23;81.59;95692.00;5094801;28;20039;-59
2022/04/18 05:57:41;;;;;;;4.38;3.38;;;;;;;4.22;81.33;95696.38;5095836;28;20480;-59
2022/04/18 06:00:07;;;;;;;4.03;3.70;;;;;;;4.24;82.66;95696.28;5092069;28;20536;-58
2022/04/18 06:02:32;;;;;;;3.25;3.00;;;;;;;4.24;81.73;95694.50;5096857;28;20156;-58
2022/04/18 06:04:58;;;;;;;3.67;3.20;;;;;;;4.30;80.93;95698.47;5091893;28;20035;-59
2022/04/18 06:07:23;;;;;;;3.75;3.28;;;;;;;4.37;81.64;95701.50;5096645;28;20051;-58
2022/04/18 06:09:49;;;;;;;3.60;3.35;;;;;;;4.46;81.42;95697.44;5092421;28;20054;-59
2022/04/18 06:12:20;;;;;;;3.15;2.95;;;;;;;4.52;82.46;95703.06;5094275;28;20056;-58
2022/04/18 06:14:45;;;;;;;3.38;3.08;;;;;;;4.54;82.29;95697.75;5094954;28;20036;-58
2022/04/18 06:17:10;;;;;;;6.03;5.40;;;;;;;4.60;83.00;95702.53;5097930;28;20038;-59
2022/04/18 06:19:36;;;;;;;3.30;3.10;;;;;;;4.74;83.09;95704.19;5099194;28;20055;-58
2022/04/18 06:22:01;;;;;;;4.45;3.28;;;;;;;5.13;82.57;95698.94;5096727;28;20411;-59
2022/04/18 06:24:26;;;;;;;3.78;3.47;;;;;;;5.72;79.47;95698.22;5097911;28;20035;-59
2022/04/18 06:26:52;;;;;;;16.15;14.50;;;;;;;6.30;76.71;95701.88;5097332;28;20020;-59
2022/04/18 06:29:17;;;;;;;8.60;7.80;;;;;;;6.83;74.25;95703.97;5102522;28;20395;-59
2022/04/18 06:31:43;;;;;;;6.20;5.60;;;;;;;7.45;71.56;95700.94;5096924;28;20480;-59
2022/04/18 06:34:08;;;;;;;4.25;3.95;;;;;;;8.05;69.21;95703.13;5096341;28;20020;-59
2022/04/18 06:36:34;;;;;;;3.38;3.17;;;;;;;8.65;67.36;95707.00;5098381;28;20108;-58
2022/04/18 06:38:59;;;;;;;3.95;3.50;;;;;;;9.17;65.43;95706.97;5099042;28;20024;-58
2022/04/18 06:41:24;;;;;;;3.38;3.17;;;;;;;9.82;63.35;95703.09;5087755;28;20453;-59
2022/04/18 06:43:50;;;;;;;2.95;2.75;;;;;;;10.54;59.81;95703.69;5097035;28;20055;-58
2022/04/18 06:46:15;;;;;;;2.67;2.50;;;;;;;10.89;58.81;95707.47;5098955;28;20055;-59
2022/04/18 06:48:40;;;;;;;4.32;2.33;;;;;;;11.20;55.60;95701.09;5098201;28;20042;-59
2022/04/18 06:51:06;;;;;;;3.20;3.00;;;;;;;11.72;54.23;95702.38;5095839;28;20051;-59
2022/04/18 06:53:31;;;;;;;3.00;2.80;;;;;;;11.98;53.20;95699.81;5098196;28;20026;-59
2022/04/18 06:58:40;;;;;;;2.50;2.40;;;;;;;12.63;50.71;95697.06;5094085;28;20120;-59
2022/04/18 07:01:06;;;;;;;2.60;2.40;;;;;;;13.43;49.09;95698.66;5099537;28;20081;-58
2022/04/18 07:03:32;;;;;;;2.15;2.05;;;;;;;13.30;49.70;95696.44;5097964;28;20031;-59
2022/04/18 07:05:57;;;;;;;2.08;1.80;;;;;;;14.09;47.79;95693.53;5095615;28;20103;-59
2022/04/18 07:08:22;;;;;;;2.22;2.03;;;;;;;14.31;44.39;95696.53;5099736;28;20176;-59
2022/04/18 07:10:48;;;;;;;2.17;1.83;;;;;;;14.90;44.33;95698.19;5095552;28;20596;-59
2022/04/18 07:13:13;;;;;;;2.45;2.25;;;;;;;14.88;43.96;95689.56;5096710;28;20032;-59
2022/04/18 07:15:39;;;;;;;2.35;2.20;;;;;;;15.37;44.72;95677.16;5097410;28;20120;-59
2022/04/18 07:18:05;;;;;;;3.92;2.10;;;;;;;15.78;42.49;95686.72;5096150;28;20024;-59
2022/04/18 07:20:31;;;;;;;2.28;2.08;;;;;;;15.58;41.11;95681.84;5096561;28;20081;-59
2022/04/18 07:22:57;;;;;;;2.10;2.00;;;;;;;15.60;42.80;95682.53;5094340;28;20554;-59
2022/04/18 07:25:22;;;;;;;1.67;1.65;;;;;;;16.25;40.04;95679.66;5100067;28;20467;-59
2022/04/18 07:27:47;;;;;;;1.90;1.80;;;;;;;15.92;39.26;95683.38;5095948;28;20094;-59
2022/04/18 07:30:13;;;;;;;3.28;1.70;;;;;;;15.66;38.95;95673.88;5096556;28;20035;-59
2022/04/18 07:32:40;;;;;;;1.90;1.80;;;;;;;15.93;40.52;95681.56;5098948;28;20020;-59
2022/04/18 07:35:07;;;;;;;1.92;1.85;;;;;;;16.10;41.12;95679.59;5093910;28;20102;-59
2022/04/18 07:37:32;;;;;;;1.88;1.77;;;;;;;16.27;40.06;95678.50;5096146;28;20028;-59
2022/04/18 07:39:57;;;;;;;1.70;1.60;;;;;;;16.31;38.49;95682.44;5094618;28;20031;-59
2022/04/18 07:42:23;;;;;;;2.20;2.00;;;;;;;16.65;38.59;95676.81;5100371;28;20492;-59
2022/04/18 07:44:49;;;;;;;1.80;1.70;;;;;;;16.60;36.46;95677.38;5099620;28;20403;-59
2022/04/18 07:47:14;;;;;;;2.47;2.28;;;;;;;16.92;36.75;95670.09;5097253;28;20043;-59
2022/04/18 07:49:39;;;;;;;2.17;2.00;;;;;;;17.06;35.79;95683.63;5095869;28;20415;-59
2022/04/18 07:52:06;;;;;;;2.40;1.85;;;;;;;16.50;37.28;95672.31;5095919;28;20034;-59
2022/04/18 07:54:31;;;;;;;2.45;1.80;;;;;;;16.53;37.79;95668.47;5097233;28;20066;-59
2022/04/18 07:56:56;;;;;;;3.80;1.70;;;;;;;16.63;37.30;95662.91;5092949;28;20055;-59
2022/04/18 07:59:22;;;;;;;2.00;1.90;;;;;;;16.45;36.84;95656.06;5097739;28;20055;-59
2022/04/18 08:01:47;;;;;;;2.00;1.90;;;;;;;16.93;36.61;95658.44;5096686;28;20039;-59
2022/04/18 08:04:12;;;;;;;2.20;2.00;;;;;;;16.48;35.89;95653.09;5100057;28;20039;-59
2022/04/18 08:06:38;;;;;;;1.85;1.75;;;;;;;16.64;34.91;95649.44;5096140;28;20096;-59
2022/04/18 08:09:03;;;;;;;2.13;1.92;;;;;;;17.08;34.61;95653.16;5093324;28;20443;-59
2022/04/18 08:11:29;;;;;;;1.83;1.73;;;;;;;17.11;35.05;95655.44;5096605;28;20058;-59
2022/04/18 08:13:54;;;;;;;7.68;1.95;;;;;;;17.79;34.51;95656.25;5096952;28;20513;-58
2022/04/18 08:16:20;;;;;;;1.88;1.77;;;;;;;17.88;32.38;95655.94;5098576;28;20039;-57
2022/04/18 08:18:46;;;;;;;2.08;1.98;;;;;;;17.74;33.75;95652.31;5095923;28;20038;-57
2022/04/18 08:21:14;;;;;;;2.10;1.90;;;;;;;17.52;33.87;95650.63;5095750;28;20106;-57
2022/04/18 08:23:40;;;;;;;3.63;1.80;;;;;;;17.44;33.62;95643.56;5097378;28;20050;-58
2022/04/18 08:26:05;;;;;;;2.13;2.03;;;;;;;17.47;33.89;95643.22;5098409;28;20039;-58
2022/04/18 08:28:31;;;;;;;1.80;1.70;;;;;;;16.84;33.90;95649.72;5095089;28;20099;-58
2022/04/18 08:30:57;;;;;;;1.90;1.80;;;;;;;17.17;34.85;95638.75;5095643;28;20024;-58
2022/04/18 08:33:23;;;;;;;2.70;2.13;;;;;;;17.27;34.88;95638.47;5095237;28;20032;-58
2022/04/18 08:35:49;;;;;;;1.85;1.75;;;;;;;17.88;32.02;95655.13;5095105;28;20036;-58
2022/04/18 08:38:14;;;;;;;3.22;1.63;;;;;;;17.02;33.00;95651.22;5099554;28;20111;-58
2022/04/18 08:40:42;;;;;;;1.77;1.67;;;;;;;17.26;34.18;95642.16;5084894;28;20023;-58
2022/04/18 08:43:08;;;;;;;2.88;2.00;;;;;;;17.65;33.12;95655.28;5095136;28;20047;-58
2022/04/18 08:45:35;;;;;;;2.08;1.95;;;;;;;17.62;34.33;95648.50;5098922;28;20020;-58
2022/04/18 08:53:30;;;;;;;2.17;2.08;;;;;;;18.51;32.02;95649.19;5094978;28;20038;-58
2022/04/18 08:55:58;;;;;;;2.05;1.77;;;;;;;18.36;33.54;95645.78;5095300;28;20085;-57
2022/04/18 08:58:26;;;;;;;2.00;1.90;;;;;;;18.33;33.23;95645.16;5097575;28;20042;-59
2022/04/18 09:00:53;;;;;;;1.95;1.83;;;;;;;19.00;32.00;95647.50;5092180;28;20035;-57
2022/04/18 09:03:18;;;;;;;1.77;1.67;;;;;;;18.97;32.62;95639.06;5094559;28;20032;-58
2022/04/18 09:05:44;;;;;;;1.92;1.73;;;;;;;18.95;32.67;95643.75;5095329;28;20035;-57
2022/04/18 09:08:10;;;;;;;5.38;1.90;;;;;;;18.96;31.71;95645.41;5096592;28;20032;-57
2022/04/18 09:10:37;;;;;;;3.35;1.60;;;;;;;19.34;31.87;95639.66;5096202;28;20036;-58
2022/04/18 09:13:04;;;;;;;2.42;1.90;;;;;;;19.55;32.68;95635.22;5095807;28;20019;-57
2022/04/18 09:15:34;;;;;;;1.80;1.70;;;;;;;20.67;27.81;95624.13;5093964;28;20031;-57
2022/04/18 09:18:18;;;;;;;1.80;1.70;;;;;;;19.59;29.55;95629.31;5097427;28;20032;-57
2022/04/18 09:20:51;;;;;;;1.80;1.70;;;;;;;20.21;27.43;95631.09;5092259;28;20024;-57
2022/04/18 09:23:22;;;;;;;2.60;2.05;;;;;;;19.71;28.64;95629.53;5095104;28;20675;-57
2022/04/18 09:25:55;;;;;;;2.28;2.00;;;;;;;19.55;28.91;95625.38;5094172;28;20111;-57
2022/04/18 09:28:25;;;;;;;1.80;1.70;;;;;;;20.03;27.64;95623.69;5092872;28;20035;-57
2022/04/18 09:31:08;;;;;;;1.85;1.75;;;;;;;19.71;29.43;95618.84;5095262;28;20438;-58
2022/04/18 09:33:42;;;;;;;2.90;1.70;;;;;;;19.57;28.99;95619.88;5095084;28;20526;-57
2022/04/18 09:36:15;;;;;;;1.92;1.83;;;;;;;20.30;27.96;95618.34;5097248;28;20070;-57
2022/04/18 09:38:48;;;;;;;2.28;1.80;;;;;;;20.39;27.24;95613.63;5094900;28;20042;-57
2022/04/18 09:41:27;;;;;;;2.00;1.90;;;;;;;20.50;27.03;95613.03;5093172;28;20024;-57
2022/04/18 09:43:54;;;;;;;2.55;2.05;;;;;;;20.51;27.50;95612.00;5094749;28;20054;-58
2022/04/18 09:46:20;;;;;;;4.00;1.80;;;;;;;21.01;27.25;95608.03;5093725;28;20035;-57
2022/04/18 09:48:47;;;;;;;4.50;1.90;;;;;;;20.57;26.60;95608.50;5093247;28;20043;-58
2022/04/18 09:51:13;;;;;;;1.80;1.70;;;;;;;20.60;29.62;95597.38;5095410;28;20484;-58
2022/04/18 09:53:46;;;;;;;1.80;1.65;;;;;;;21.13;27.16;95603.69;5094879;28;20035;-57
2022/04/18 09:56:17;;;;;;;1.70;1.60;;;;;;;21.77;27.29;95599.50;5092919;28;20185;-58
2022/04/18 09:58:43;;;;;;;1.65;1.55;;;;;;;21.86;26.98;95590.19;5089744;28;20024;-58
2022/04/18 10:01:09;;;;;;;2.05;1.67;;;;;;;22.06;26.39;95590.06;5094776;28;20028;-57
2022/04/18 10:03:36;;;;;;;1.83;1.70;;;;;;;21.42;26.17;95590.81;5093612;28;20028;-58
2022/04/18 10:06:04;;;;;;;1.85;1.75;;;;;;;21.58;26.43;95586.00;5094722;28;20035;-58
2022/04/18 10:08:30;;;;;;;2.15;1.83;;;;;;;22.21;25.46;95579.00;5096763;28;20024;-58
2022/04/18 10:11:00;;;;;;;2.97;2.20;;;;;;;21.91;27.17;95573.47;5092436;28;20391;-58
2022/04/18 10:13:27;;;;;;;1.70;1.60;;;;;;;21.84;26.76;95581.56;5093210;28;20024;-58
2022/04/18 10:15:54;;;;;;;1.50;1.40;;;;;;;21.73;28.05;95567.78;5095351;28;20264;-58
2022/04/18 10:18:20;;;;;;;1.58;1.48;;;;;;;21.27;29.47;95568.81;5095249;28;20381;-58
2022/04/18 10:21:07;;;;;;;2.90;2.67;;;;;;;23.12;24.37;95567.88;5094465;28;20117;-58
2022/04/18 10:23:51;;;;;;;1.55;1.50;;;;;;;22.28;24.96;95558.34;5094415;28;20604;-57
2022/04/18 10:26:45;;;;;;;7.65;5.32;;;;;;;21.36;26.37;95567.56;5092790;28;20028;-58
2022/04/18 10:29:20;;;;;;;2.42;1.95;;;;;;;23.07;23.70;95558.84;5092497;28;20030;-57
2022/04/18 10:31:46;;;;;;;;;;;;;;;21.77;25.86;95560.16;5096072;28;20532;-57
2022/04/18 10:34:13;;;;;;;1.88;1.77;;;;;;;21.68;26.82;95554.22;5093081;28;20011;-58
2022/04/18 10:36:47;;;;;;;1.80;1.70;;;;;;;21.94;26.33;95557.75;5093826;28;20035;-57
2022/04/18 10:39:14;;;;;;;1.90;1.80;;;;;;;22.25;25.63;95553.44;5093662;28;20038;-57
2022/04/18 10:41:41;;;;;;;1.98;1.88;;;;;;;21.57;27.76;95552.22;5093053;28;20045;-57
2022/04/18 10:44:11;;;;;;;2.28;2.10;;;;;;;22.16;27.07;95549.34;5093723;28;20044;-58
2022/04/18 10:47:06;;;;;;;1.88;1.77;;;;;;;22.20;27.37;95539.84;5091834;28;20032;-58
2022/04/18 10:49:32;;;;;;;3.17;1.77;;;;;;;22.80;25.99;95538.47;5093101;28;20085;-57
2022/04/18 10:52:05;;;;;;;1.50;1.45;;;;;;;23.29;24.84;95527.00;5093442;28;20031;-58
2022/04/18 10:54:31;;;;;;;2.88;1.70;;;;;;;23.29;25.83;95529.69;5096223;28;20088;-58
2022/04/18 10:57:05;;;;;;;4.38;1.88;;;;;;;23.03;25.97;95521.72;5092064;28;20024;-57
2022/04/18 10:59:38;;;;;;;1.77;1.67;;;;;;;23.52;24.65;95522.75;5094586;28;20797;-57
2022/04/18 11:02:05;;;;;;;1.90;1.80;;;;;;;23.37;26.44;95521.31;5096527;28;20447;-58
2022/04/18 11:04:53;;;;;;;2.00;1.90;;;;;;;24.46;23.89;95515.97;5096448;28;20031;-58
2022/04/18 11:07:18;;;;;;;2.00;1.90;;;;;;;24.38;24.28;95518.97;5099749;28;20451;-58
2022/04/18 11:09:46;;;;;;;1.48;1.48;;;;;;;24.07;24.28;95508.31;5095363;28;20028;-57
2022/04/18 11:12:13;;;;;;;1.77;1.67;;;;;;;23.93;22.11;95512.25;5100800;28;20483;-58
2022/04/18 11:14:40;;;;;;;2.30;2.10;;;;;;;22.90;25.93;95505.75;5097364;28;20035;-57
2022/04/18 11:17:06;;;;;;;1.60;1.50;;;;;;;23.98;24.12;95498.94;5097389;28;20082;-58
2022/04/18 11:19:36;;;;;;;2.00;1.50;;;;;;;23.73;24.32;95499.94;5096330;28;20027;-58
2022/04/18 11:22:07;;;;;;;2.20;1.42;;;;;;;24.07;23.24;95496.75;5096074;28;20036;-57
2022/04/18 11:24:49;;;;;;;5.28;3.88;;;;;;;23.93;24.84;95494.25;5094327;28;20110;-57
2022/04/18 11:27:34;;;;;;;4.53;2.05;;;;;;;24.67;24.40;95493.00;5097987;28;20062;-58
2022/04/18 11:30:04;;;;;;;4.07;1.80;;;;;;;24.96;23.10;95481.50;5096326;28;20028;-58
2022/04/18 11:32:39;;;;;;;1.73;1.63;;;;;;;24.86;22.15;95476.72;5098922;28;20038;-58
2022/04/18 11:35:07;;;;;;;5.70;2.08;;;;;;;24.54;22.39;95480.63;5093068;28;20032;-58
2022/04/18 11:37:43;;;;;;;1.40;1.40;;;;;;;24.72;22.98;95471.56;5096733;28;20027;-58
2022/04/18 11:40:11;;;;;;;3.53;1.52;;;;;;;23.91;21.25;95472.16;5090604;28;20089;-58
2022/04/18 11:42:38;;;;;;;1.67;1.33;;;;;;;23.51;23.29;95467.41;5096388;28;20060;-58
2022/04/18 11:45:09;;;;;;;1.02;1.02;;;;;;;24.15;20.03;95466.81;5093861;28;20436;-58
2022/04/18 11:47:38;;;;;;;1.30;1.30;;;;;;;23.60;19.19;95463.34;5095885;28;20031;-58
2022/04/18 11:50:05;;;;;;;1.30;1.20;;;;;;;23.97;21.33;95459.66;5091905;28;20024;-58
2022/04/18 11:52:36;;;;;;;1.58;1.50;;;;;;;24.98;22.37;95463.22;5095699;28;20020;-58
2022/04/18 11:55:06;;;;;;;2.28;1.63;;;;;;;24.12;21.12;95459.22;5095902;28;20020;-58
2022/04/18 11:57:35;;;;;;;2.10;2.00;;;;;;;25.09;18.73;95458.88;5100024;28;20039;-58